Time,TemperatureF,DewpointF,PressureIn,WindDirection,WindDirectionDegrees,WindSpeedMPH,WindSpeedGustMPH,Humidity,HourlyPrecipIn,Conditions,Clouds,dailyrainin,SoftwareType,DateUTC
2013-03-14 00:10:00,68.5,27.0,30.13,NNW,348,0.0,-999.0,21,-99.99,,,0.00,weatherlink.com 1.10,2013-03-14 07:10:00,
2013-03-14 00:25:00,68.0,29.0,30.12,NNW,348,0.0,-999.0,23,-99.99,,,0.00,weatherlink.com 1.10,2013-03-14 07:25:00,
2013-03-14 00:40:00,67.4,25.0,30.12,NNW,348,0.0,-999.0,20,-99.99,,,0.00,weatherlink.com 1.10,2013-03-14 07:40:00,
2013-03-14 00:55:00,67.6,26.0,30.12,NNW,348,0.0,-999.0,21,-99.99,,,0.00,weatherlink.com 1.10,2013-03-14 07:55:00,
2013-03-14 01:10:00,67.9,26.0,30.11,NNW,348,0.0,-999.0,21,-99.99,,,0.00,weatherlink.com 1.10,2013-03-14 08:10:00,
2013-03-14 01:25:00,67.9,25.0,30.12,NNW,348,0.0,-999.0,20,-99.99,,,0.00,weatherlink.com 1.10,2013-03-14 08:25:00,
2013-03-14 01:40:00,67.9,25.0,30.11,NNW,348,0.0,-999.0,20,-99.99,,,0.00,weatherlink.com 1.10,2013-03-14 08:40:00,
2013-03-14 01:55:00,67.5,25.0,30.11,NNW,348,0.0,-999.0,20,-99.99,,,0.00,weatherlink.com 1.10,2013-03-14 08:55:00,
2013-03-14 02:10:00,67.4,27.0,30.11,NNW,348,0.0,-999.0,22,-99.99,,,0.00,weatherlink.com 1.10,2013-03-14 09:10:00,
2013-03-14 02:25:00,67.1,27.0,30.11,NNW,348,0.0,-999.0,22,-99.99,,,0.00,weatherlink.com 1.10,2013-03-14 09:25:00,
2013-03-14 02:40:00,66.2,29.0,30.11,NNW,348,0.0,-999.0,25,-99.99,,,0.00,weatherlink.com 1.10,2013-03-14 09:40:00,
2013-03-14 02:55:00,64.4,30.0,30.11,NNW,348,0.0,-999.0,27,-99.99,,,0.00,weatherlink.com 1.10,2013-03-14 09:55:00,
2013-03-14 03:10:00,63.8,30.0,30.11,NNW,348,0.0,-999.0,28,-99.99,,,0.00,weatherlink.com 1.10,2013-03-14 10:10:00,
2013-03-14 03:25:00,63.1,33.0,30.11,NNW,348,0.0,-999.0,32,-99.99,,,0.00,weatherlink.com 1.10,2013-03-14 10:25:00,
2013-03-14 03:40:00,63.0,33.0,30.10,NNW,348,0.0,-999.0,33,-99.99,,,0.00,weatherlink.com 1.10,2013-03-14 10:40:00,
2013-03-14 03:55:00,63.1,27.0,30.10,NNW,348,0.0,-999.0,26,-99.99,,,0.00,weatherlink.com 1.10,2013-03-14 10:55:00,
2013-03-14 04:10:00,63.5,31.0,30.09,NNW,348,0.0,-999.0,29,-99.99,,,0.00,weatherlink.com 1.10,2013-03-14 11:10:00,
2013-03-14 04:25:00,64.7,32.0,30.09,NNW,348,0.0,-999.0,30,-99.99,,,0.00,weatherlink.com 1.10,2013-03-14 11:25:00,
2013-03-14 04:40:00,64.5,29.0,30.09,NNW,348,0.0,-999.0,26,-99.99,,,0.00,weatherlink.com 1.10,2013-03-14 11:40:00,
2013-03-14 04:55:00,65.3,28.0,30.09,NNW,348,0.0,-999.0,25,-99.99,,,0.00,weatherlink.com 1.10,2013-03-14 11:55:00,
2013-03-14 05:10:00,65.2,30.0,30.09,NNW,348,0.0,-999.0,27,-99.99,,,0.00,weatherlink.com 1.10,2013-03-14 12:10:00,
2013-03-14 05:25:00,65.6,26.0,30.09,NNW,348,0.0,-999.0,22,-99.99,,,0.00,weatherlink.com 1.10,2013-03-14 12:25:00,
2013-03-14 05:40:00,66.2,27.0,30.09,NNW,348,0.0,-999.0,23,-99.99,,,0.00,weatherlink.com 1.10,2013-03-14 12:40:00,
2013-03-14 05:55:00,66.5,26.0,30.09,NNW,348,0.0,-999.0,22,-99.99,,,0.00,weatherlink.com 1.10,2013-03-14 12:55:00,
2013-03-14 06:10:00,66.6,29.0,30.09,NNW,348,0.0,-999.0,24,-99.99,,,0.00,weatherlink.com 1.10,2013-03-14 13:10:00,
2013-03-14 06:25:00,66.0,28.0,30.09,NNW,348,0.0,-999.0,24,-99.99,,,0.00,weatherlink.com 1.10,2013-03-14 13:25:00,
2013-03-14 06:40:00,66.5,26.0,30.09,NNW,348,0.0,-999.0,22,-99.99,,,0.00,weatherlink.com 1.10,2013-03-14 13:40:00,
2013-03-14 06:55:00,67.0,26.0,30.08,NNW,348,0.0,-999.0,21,-99.99,,,0.00,weatherlink.com 1.10,2013-03-14 13:55:00,
2013-03-14 07:10:00,67.3,29.0,30.08,NNW,348,0.0,-999.0,24,-99.99,,,0.00,weatherlink.com 1.10,2013-03-14 14:10:00,
2013-03-14 07:25:00,66.5,28.0,30.09,NNW,348,0.0,-999.0,24,-99.99,,,0.00,weatherlink.com 1.10,2013-03-14 14:25:00,
2013-03-14 07:40:00,65.6,29.0,30.10,NNW,348,0.0,-999.0,25,-99.99,,,0.00,weatherlink.com 1.10,2013-03-14 14:40:00,
2013-03-14 07:55:00,65.0,29.0,30.10,NNW,348,0.0,-999.0,26,-99.99,,,0.00,weatherlink.com 1.10,2013-03-14 14:55:00,
2013-03-14 08:10:00,65.3,30.0,30.10,NNW,348,0.0,-999.0,27,-99.99,,,0.00,weatherlink.com 1.10,2013-03-14 15:10:00,
2013-03-14 08:25:00,67.3,31.0,30.10,NNW,348,0.0,-999.0,26,-99.99,,,0.00,weatherlink.com 1.10,2013-03-14 15:25:00,
2013-03-14 08:40:00,68.3,36.0,30.11,NNW,348,0.0,-999.0,30,-99.99,,,0.00,weatherlink.com 1.10,2013-03-14 15:40:00,
2013-03-14 08:55:00,68.3,36.0,30.11,NNW,348,0.0,-999.0,30,-99.99,,,0.00,weatherlink.com 1.10,2013-03-14 15:55:00,
2013-03-14 09:10:00,69.4,34.0,30.12,NNW,348,0.0,-999.0,27,-99.99,,,0.00,weatherlink.com 1.10,2013-03-14 16:10:00,
2013-03-14 09:25:00,69.2,39.0,30.14,NNW,348,0.0,-999.0,33,-99.99,,,0.00,weatherlink.com 1.10,2013-03-14 16:25:00,
2013-03-14 09:40:00,69.9,34.0,30.14,NNW,348,0.0,-999.0,27,-99.99,,,0.00,weatherlink.com 1.10,2013-03-14 16:40:00,
2013-03-14 09:55:00,70.7,33.0,30.14,NNW,348,0.0,-999.0,25,-99.99,,,0.00,weatherlink.com 1.10,2013-03-14 16:55:00,
2013-03-14 10:10:00,71.4,35.0,30.14,NNW,348,0.0,-999.0,26,-99.99,,,0.00,weatherlink.com 1.10,2013-03-14 17:10:00,
2013-03-14 10:25:00,71.8,35.0,30.14,NNW,348,0.0,-999.0,26,-99.99,,,0.00,weatherlink.com 1.10,2013-03-14 17:25:00,
2013-03-14 10:40:00,72.2,33.0,30.15,NNW,348,0.0,-999.0,24,-99.99,,,0.00,weatherlink.com 1.10,2013-03-14 17:40:00,
2013-03-14 10:55:00,72.0,33.0,30.15,NNW,348,0.0,-999.0,24,-99.99,,,0.00,weatherlink.com 1.10,2013-03-14 17:55:00,
2013-03-14 11:10:00,71.9,42.0,30.15,NNW,348,0.0,-999.0,34,-99.99,,,0.00,weatherlink.com 1.10,2013-03-14 18:10:00,
2013-03-14 11:25:00,72.1,31.0,30.15,NNW,348,0.0,-999.0,22,-99.99,,,0.00,weatherlink.com 1.10,2013-03-14 18:25:00,
2013-03-14 11:40:00,73.0,33.0,30.15,NNW,344,0.0,-999.0,23,-99.99,,,0.00,weatherlink.com 1.10,2013-03-14 18:40:00,
2013-03-14 11:55:00,73.4,36.0,30.15,NNW,336,0.0,-999.0,26,-99.99,,,0.00,weatherlink.com 1.10,2013-03-14 18:55:00,
2013-03-14 12:10:00,73.3,32.0,30.15,West,274,0.0,-999.0,22,-99.99,,,0.00,weatherlink.com 1.10,2013-03-14 19:10:00,
2013-03-14 12:26:00,73.4,36.0,30.15,West,264,0.0,-999.0,26,-99.99,,,0.00,weatherlink.com 1.10,2013-03-14 19:26:00,
2013-03-14 12:41:00,72.0,40.0,30.15,West,263,0.0,-999.0,31,-99.99,,,0.00,weatherlink.com 1.10,2013-03-14 19:41:00,
2013-03-14 12:55:00,72.8,37.0,30.14,SSE,155,0.0,-999.0,27,-99.99,,,0.00,weatherlink.com 1.10,2013-03-14 19:55:00,
2013-03-14 13:11:00,73.8,30.0,30.14,West,259,0.0,-999.0,20,-99.99,,,0.00,weatherlink.com 1.10,2013-03-14 20:11:00,
2013-03-14 13:26:00,72.6,45.0,30.14,West,259,0.0,-999.0,37,-99.99,,,0.00,weatherlink.com 1.10,2013-03-14 20:26:00,
2013-03-14 13:40:00,71.8,45.0,30.14,West,259,0.0,-999.0,38,-99.99,,,0.00,weatherlink.com 1.10,2013-03-14 20:40:00,
2013-03-14 13:56:00,69.7,47.0,30.14,WSW,252,0.0,-999.0,45,-99.99,,,0.00,weatherlink.com 1.10,2013-03-14 20:56:00,
2013-03-14 14:11:00,71.0,46.0,30.14,WSW,252,0.0,-999.0,41,-99.99,,,0.00,weatherlink.com 1.10,2013-03-14 21:11:00,
2013-03-14 14:26:00,72.2,43.0,30.13,WSW,252,0.0,-999.0,35,-99.99,,,0.00,weatherlink.com 1.10,2013-03-14 21:26:00,
2013-03-14 14:41:00,72.4,36.0,30.12,WSW,252,0.0,-999.0,26,-99.99,,,0.00,weatherlink.com 1.10,2013-03-14 21:41:00,
2013-03-14 14:55:00,69.9,50.0,30.12,WSW,252,0.0,-999.0,49,-99.99,,,0.00,weatherlink.com 1.10,2013-03-14 21:55:00,
2013-03-14 15:25:00,73.2,47.0,30.11,WSW,250,0.0,-999.0,40,-99.99,,,0.00,weatherlink.com 1.10,2013-03-14 22:25:00,
2013-03-14 15:40:00,71.9,43.0,30.11,WSW,250,0.0,-999.0,35,-99.99,,,0.00,weatherlink.com 1.10,2013-03-14 22:40:00,
2013-03-14 15:55:00,72.8,44.0,30.11,WSW,249,0.0,-999.0,35,-99.99,,,0.00,weatherlink.com 1.10,2013-03-14 22:55:00,
2013-03-14 16:10:00,71.7,51.0,30.11,WSW,249,0.0,-999.0,48,-99.99,,,0.00,weatherlink.com 1.10,2013-03-14 23:10:00,
2013-03-14 16:25:00,71.9,44.0,30.11,WSW,249,0.0,-999.0,37,-99.99,,,0.00,weatherlink.com 1.10,2013-03-14 23:25:00,
2013-03-14 16:40:00,72.9,43.0,30.10,WSW,249,0.0,-999.0,34,-99.99,,,0.00,weatherlink.com 1.10,2013-03-14 23:40:00,
2013-03-14 16:55:00,72.9,40.0,30.10,WSW,249,0.0,-999.0,31,-99.99,,,0.00,weatherlink.com 1.10,2013-03-14 23:55:00,
2013-03-14 17:10:00,73.3,38.0,30.10,WSW,249,0.0,-999.0,28,-99.99,,,0.00,weatherlink.com 1.10,2013-03-15 00:10:00,
2013-03-14 17:25:00,72.2,37.0,30.09,WSW,249,0.0,-999.0,28,-99.99,,,0.00,weatherlink.com 1.10,2013-03-15 00:25:00,
2013-03-14 17:40:00,72.7,36.0,30.09,WSW,249,0.0,-999.0,26,-99.99,,,0.00,weatherlink.com 1.10,2013-03-15 00:40:00,
2013-03-14 17:55:00,71.3,30.0,30.09,WSW,249,0.0,-999.0,22,-99.99,,,0.00,weatherlink.com 1.10,2013-03-15 00:55:00,
2013-03-14 18:10:00,71.1,33.0,30.08,WSW,249,0.0,-999.0,25,-99.99,,,0.00,weatherlink.com 1.10,2013-03-15 01:10:00,
2013-03-14 18:25:00,70.9,31.0,30.09,WSW,249,0.0,-999.0,23,-99.99,,,0.00,weatherlink.com 1.10,2013-03-15 01:25:00,
2013-03-14 18:40:00,70.4,31.0,30.08,WSW,249,0.0,-999.0,23,-99.99,,,0.00,weatherlink.com 1.10,2013-03-15 01:40:00,
2013-03-14 19:10:00,70.0,28.0,30.08,WSW,252,0.0,-999.0,21,-99.99,,,0.00,weatherlink.com 1.10,2013-03-15 02:10:00,
2013-03-14 19:25:00,70.2,31.0,30.07,WSW,252,0.0,-999.0,23,-99.99,,,0.00,weatherlink.com 1.10,2013-03-15 02:25:00,
2013-03-14 19:40:00,70.0,33.0,30.07,WSW,252,0.0,-999.0,26,-99.99,,,0.00,weatherlink.com 1.10,2013-03-15 02:40:00,
2013-03-14 19:55:00,69.7,31.0,30.08,WSW,252,0.0,-999.0,24,-99.99,,,0.00,weatherlink.com 1.10,2013-03-15 02:55:00,
2013-03-14 20:10:00,69.2,29.0,30.08,WSW,252,0.0,-999.0,22,-99.99,,,0.00,weatherlink.com 1.10,2013-03-15 03:10:00,
2013-03-14 20:25:00,69.5,38.0,30.08,WSW,252,0.0,-999.0,32,-99.99,,,0.00,weatherlink.com 1.10,2013-03-15 03:25:00,
2013-03-14 20:40:00,69.9,39.0,30.09,WSW,252,0.0,-999.0,33,-99.99,,,0.00,weatherlink.com 1.10,2013-03-15 03:40:00,
2013-03-14 20:55:00,69.3,26.0,30.08,WSW,255,0.0,-999.0,20,-99.99,,,0.00,weatherlink.com 1.10,2013-03-15 03:55:00,
2013-03-14 21:10:00,70.0,40.0,30.09,West,277,0.0,-999.0,33,-99.99,,,0.00,weatherlink.com 1.10,2013-03-15 04:10:00,
2013-03-14 21:25:00,69.9,32.0,30.09,West,277,0.0,-999.0,25,-99.99,,,0.00,weatherlink.com 1.10,2013-03-15 04:25:00,
2013-03-14 21:40:00,69.5,38.0,30.08,NNE,14,0.0,-999.0,32,-99.99,,,0.00,weatherlink.com 1.10,2013-03-15 04:40:00,
2013-03-14 21:55:00,69.9,37.0,30.08,NNE,17,0.0,-999.0,30,-99.99,,,0.00,weatherlink.com 1.10,2013-03-15 04:55:00,
2013-03-14 22:10:00,69.7,38.0,30.09,NNE,17,0.0,-999.0,31,-99.99,,,0.00,weatherlink.com 1.10,2013-03-15 05:10:00,
2013-03-14 22:25:00,68.5,34.0,30.09,NNE,17,0.0,-999.0,28,-99.99,,,0.00,weatherlink.com 1.10,2013-03-15 05:25:00,
2013-03-14 22:40:00,68.3,34.0,30.09,NNE,17,0.0,-999.0,28,-99.99,,,0.00,weatherlink.com 1.10,2013-03-15 05:40:00,
2013-03-14 22:55:00,67.7,40.0,30.10,NNE,17,0.0,-999.0,36,-99.99,,,0.00,weatherlink.com 1.10,2013-03-15 05:55:00,
2013-03-14 23:10:00,64.1,36.0,30.10,NNE,33,0.0,-999.0,36,-99.99,,,0.00,weatherlink.com 1.10,2013-03-15 06:10:00,
2013-03-14 23:25:00,65.2,37.0,30.09,NNE,33,0.0,-999.0,35,-99.99,,,0.00,weatherlink.com 1.10,2013-03-15 06:25:00,
2013-03-14 23:40:00,65.8,37.0,30.10,NNE,33,0.0,-999.0,35,-99.99,,,0.00,weatherlink.com 1.10,2013-03-15 06:40:00,
2013-03-14 23:55:00,66.6,37.0,30.09,NNE,33,0.0,-999.0,34,-99.99,,,0.00,weatherlink.com 1.10,2013-03-15 06:55:00,